• Join FlightAware (Why Join?)
  • Login
  • US Flag 
07:17PM EDT


 

Airport Tracker/Info


-or-


 

Live Flight TrackerFlight Track Log ✈ N960DL ✈ 20-Apr-2013 ✈ KDAB - KATL

Flight Track Log - Related Links

Times and Time Zones

All times are in EDT time to prevent confusion due to time zone crossing. See the N960DL flight status page for this flight to view local times or setup timezone preferences in your user account.

Time Position Orientation Groundspeed Altitude Reporting Facility
EDT Latitude Longitude Course Direction KTS MPH feet Rate Location/Type
06:14AM 29.1822 -81.0517 352° North 164 189 700  Level Jacksonville Center
06:16AM 29.2122 -80.9489 71° East 242 278 3,100 2,040 Climbing Jacksonville Center
06:17AM 29.4167 -81.3001 319° Northwest  Level FlightAware Approximate
06:17AM 29.2828 -80.9283 14° North 242 278 6,100  Level Jacksonville Center
06:18AM 29.5007 -81.3841 319° Northwest  Level FlightAware Approximate
06:18AM 29.3483 -80.9819 325° Northwest 216 249 9,100  Level Jacksonville Center
06:19AM 29.6008 -81.4279 352° North  Level FlightAware Approximate
06:19AM 29.4158 -81.0331 327° Northwest 247 284 11,100  Level Jacksonville Center
06:20AM 29.4964 -81.1197 317° Northwest 314 361 14,100 2,640 Climbing Jacksonville Center
06:21AM 29.5847 -81.1731 332° Northwest 339 390 16,400 1,680 Climbing Jacksonville Center
06:22AM 29.6836 -81.2239 336° Northwest 361 415 17,500 1,320 Climbing Jacksonville Center
06:23AM 29.7928 -81.2819 335° Northwest 391 450 19,100 1,800 Climbing Jacksonville Center
06:24AM 29.9064 -81.3447 334° Northwest 421 484 21,100 2,100 Climbing Jacksonville Center
06:25AM 30.0200 -81.4078 334° Northwest 441 507 23,300 1,740 Climbing Jacksonville Center
06:26AM 30.1353 -81.4683 336° Northwest 447 514 24,600 1,380 Climbing Jacksonville Center
06:27AM 30.2508 -81.5292 336° Northwest 447 514 26,100 1,980 Climbing Jacksonville Center
06:28AM 30.3642 -81.5925 334° Northwest 447 514 28,600 1,740 Climbing Jacksonville Center
06:29AM 30.4733 -81.6489 336° Northwest 442 509 29,600 840 Climbing Jacksonville Center
06:30AM 30.5825 -81.7103 334° Northwest 437 503 30,300 600 Climbing Jacksonville Center
06:31AM 30.6939 -81.7717 335° Northwest 432 497 30,900 600 Climbing Jacksonville Center
06:32AM 30.8072 -81.8356 334° Northwest 432 497 31,600 720 Climbing Jacksonville Center
06:33AM 30.9225 -81.8997 334° Northwest 444 511 32,400 600 Climbing Jacksonville Center
06:34AM 31.0314 -81.9617 334° Northwest 444 511 32,900 240 Climbing Jacksonville Center
06:35AM 31.1467 -82.0236 335° Northwest 444 511 32,900  Level Jacksonville Center
06:36AM 31.2578 -82.0881 334° Northwest 444 511 33,000  Climbing Jacksonville Center
06:37AM 31.3711 -82.1553 333° Northwest 449 517 33,000  Level Jacksonville Center
06:38AM 31.4883 -82.2225 334° Northwest 449 517 33,000  Level Jacksonville Center
06:40AM 31.7308 -82.3564 335° Northwest 447 514 33,000  Level Atlanta Center
06:41AM 31.8425 -82.4228 333° Northwest 447 514 33,000  Level Atlanta Center
06:42AM 31.9394 -82.5092 323° Northwest 447 514 33,000  Level Atlanta Center
06:43AM 32.0325 -82.6008 320° Northwest 442 509 33,000 -180 Level Atlanta Center
06:44AM 32.1211 -82.6900 320° Northwest 430 495 32,700 -1,800 Descending Atlanta Center
06:45AM 32.2139 -82.7844 319° Northwest 430 495 29,500 -2,820 Descending Atlanta Center
06:46AM 32.3089 -82.8814 319° Northwest 440 506 27,100 -1,980 Descending Atlanta Center
06:47AM 32.4017 -82.9736 320° Northwest 440 506 25,600 -1,440 Descending Atlanta Center
06:48AM 32.4900 -83.0589 321° Northwest 435 501 24,300 -1,800 Descending Atlanta Center
06:49AM 32.5761 -83.1514 318° Northwest 428 493 22,100 -1,740 Descending Atlanta Center
06:50AM 32.6686 -83.2492 318° Northwest 428 493 20,900 -1,020 Descending Atlanta Center
06:51AM 32.7569 -83.3350 321° Northwest 428 493 20,100 -900 Descending Atlanta Center
06:52AM 32.8450 -83.4256 319° Northwest 423 487 19,200 -1,500 Descending Atlanta Center
06:53AM 32.9289 -83.5092 320° Northwest 403 464 17,100 -2,460 Descending Atlanta Center
06:54AM 33.0108 -83.6003 317° Northwest 398 458 14,300 -2,520 Descending Atlanta Center
06:55AM 33.0819 -83.6669 322° Northwest 384 442 12,100 -1,560 Descending Atlanta Center
06:55AM 33.1333 -83.7167 321° Northwest 373 429 12,000 -120 Descending Atlanta TRACON
06:56AM 33.2000 -83.7833 320° Northwest 311 358 12,000 -300 Level Atlanta TRACON
06:57AM 33.2500 -83.8667 306° West 276 318 11,500 -900 Descending Atlanta TRACON
06:58AM 33.2786 -83.8872 329° Northwest 291 335 10,700 -1,560 Descending Atlanta Center
06:59AM 33.3372 -83.9467 320° Northwest 276 318 9,200 -1,380 Descending Atlanta Center
07:00AM 33.3956 -84.0014 322° Northwest 269 310 8,000 -1,320 Descending Atlanta Center
07:01AM 33.4497 -84.0561 320° Northwest 264 304 6,600 -1,440 Descending Atlanta Center
07:02AM 33.5042 -84.1086 321° Northwest 253 291 5,200 -1,380 Descending Atlanta Center
07:02AM 33.5333 -84.1333 325° Northwest 234 269 4,600 -1,200 Descending Atlanta TRACON
07:03AM 33.5833 -84.1833 320° Northwest 215 247 3,400 -840 Descending Atlanta TRACON
07:04AM 33.6167 -84.2167 320° Northwest 165 190 3,000 -420 Descending Atlanta TRACON